Terminal Aerodrome Forecast
Issued by NWS Wilmington, OH

Current Version | Previous Version | Graphics & Text | Print | Product List | Glossary On
Versions: 1 2 3 4 5 6 7 8 9 10 11 12 13 14 15 16
000
FTUS41 KILN 171033 AAB
TAFDAY
TAF AMD
KDAY 171033Z 1711/1806 18007KT P6SM VCTS SCT040CB OVC150
      TEMPO 1711/1713 3SM -TSRA BR OVC025CB
     FM171300 19010KT P6SM VCTS SCT040CB BKN090
     FM171700 21013G20KT P6SM -SHRA VCTS BKN040CB
     FM180200 22010KT P6SM BKN120=

USA.gov is the U.S. government's official web portal to all federal, state and local government web resources and services.